createdAt,value
2018-12-17T00:00:37.488Z,3.12
2018-12-17T00:01:37.536Z,3.19
2018-12-17T00:02:37.585Z,3.20
2018-12-17T00:03:37.638Z,3.17
2018-12-17T00:04:37.686Z,3.20
2018-12-17T00:05:41.664Z,3.16
2018-12-17T00:06:37.787Z,3.16
2018-12-17T00:07:37.839Z,3.07
2018-12-17T00:08:37.887Z,3.08
2018-12-17T00:09:37.939Z,3.20
2018-12-17T00:10:37.991Z,3.23
2018-12-17T00:11:38.039Z,3.20
2018-12-17T00:12:38.089Z,3.05
2018-12-17T00:13:38.140Z,2.97
2018-12-17T00:14:38.206Z,3.02
2018-12-17T00:15:38.242Z,3.20
2018-12-17T00:16:38.291Z,3.19
2018-12-17T00:17:38.393Z,3.16
2018-12-17T00:18:38.391Z,3.19
2018-12-17T00:19:38.443Z,3.17
2018-12-17T00:20:38.492Z,3.17
2018-12-17T00:21:38.542Z,3.10
2018-12-17T00:22:38.594Z,3.22
2018-12-17T00:23:38.644Z,2.97
2018-12-17T00:24:38.695Z,2.86
2018-12-17T00:25:38.745Z,2.83
2018-12-17T00:26:38.795Z,2.80
2018-12-17T00:27:38.881Z,2.92
2018-12-17T00:28:38.895Z,2.99
2018-12-17T00:29:38.946Z,3.01
2018-12-17T00:30:38.997Z,3.01
2018-12-17T00:31:39.046Z,3.07
2018-12-17T00:32:39.098Z,3.12
2018-12-17T00:33:39.147Z,3.08
2018-12-17T00:34:39.198Z,3.07
2018-12-17T00:35:39.247Z,2.99
2018-12-17T00:36:39.299Z,3.10
2018-12-17T00:37:39.348Z,3.07
2018-12-17T00:38:39.399Z,3.02
2018-12-17T00:39:39.450Z,3.01
2018-12-17T00:40:39.500Z,2.86
2018-12-17T00:41:39.551Z,2.92
2018-12-17T00:42:39.606Z,2.98
2018-12-17T00:43:39.651Z,2.99
2018-12-17T00:44:39.703Z,2.94
2018-12-17T00:45:39.752Z,2.98
2018-12-17T00:46:39.803Z,3.04
2018-12-17T00:47:39.853Z,3.05
2018-12-17T00:48:39.903Z,3.17
2018-12-17T00:49:39.954Z,3.17
2018-12-17T00:50:40.003Z,3.17
2018-12-17T00:51:40.054Z,3.16
2018-12-17T00:52:40.105Z,3.23
2018-12-17T00:53:40.155Z,3.17
2018-12-17T00:54:40.205Z,3.16
2018-12-17T00:55:40.255Z,3.28
2018-12-17T00:56:40.305Z,3.22
2018-12-17T00:57:40.361Z,3.23
2018-12-17T00:58:40.408Z,3.26
2018-12-17T00:59:40.458Z,3.26
2018-12-17T01:00:40.507Z,3.28
2018-12-17T01:01:40.561Z,3.25
2018-12-17T01:02:40.608Z,3.17
2018-12-17T01:03:40.660Z,3.17
2018-12-17T01:04:40.709Z,3.26
2018-12-17T01:05:40.760Z,3.19
2018-12-17T01:06:40.811Z,3.25
2018-12-17T01:07:40.865Z,3.17
2018-12-17T01:08:40.912Z,3.20
2018-12-17T01:09:40.961Z,3.20
2018-12-17T01:10:41.013Z,3.05
2018-12-17T01:11:41.064Z,3.01
2018-12-17T01:12:41.115Z,3.04
2018-12-17T01:13:41.164Z,3.08
2018-12-17T01:14:41.214Z,3.17
2018-12-17T01:15:41.268Z,3.15
2018-12-17T01:16:41.315Z,3.17
2018-12-17T01:17:41.366Z,3.23
2018-12-17T01:18:41.421Z,3.17
2018-12-17T01:19:41.469Z,3.20
2018-12-17T01:20:41.519Z,3.12
2018-12-17T01:21:41.569Z,3.01
2018-12-17T01:22:41.620Z,3.01
2018-12-17T01:23:41.671Z,3.01
2018-12-17T01:24:41.721Z,3.13
2018-12-17T01:25:41.774Z,3.15
2018-12-17T01:26:41.822Z,3.19
2018-12-17T01:27:41.872Z,3.19
2018-12-17T01:28:41.923Z,3.17
2018-12-17T01:29:41.974Z,3.17
2018-12-17T01:30:42.025Z,3.20
2018-12-17T01:31:42.075Z,3.25
2018-12-17T01:32:42.125Z,3.16
2018-12-17T01:33:42.238Z,3.17
2018-12-17T01:34:42.229Z,3.05
2018-12-17T01:35:42.279Z,3.13
2018-12-17T01:36:42.328Z,3.01
2018-12-17T01:37:42.378Z,3.01
2018-12-17T01:38:42.429Z,3.04
2018-12-17T01:39:42.480Z,3.08
2018-12-17T01:40:42.530Z,3.10
2018-12-17T01:41:42.582Z,3.19
2018-12-17T01:42:42.631Z,3.16
2018-12-17T01:43:42.683Z,3.12
2018-12-17T01:44:42.734Z,3.15
2018-12-17T01:45:42.785Z,3.19
2018-12-17T01:46:42.836Z,3.23
2018-12-17T01:47:42.886Z,3.15
2018-12-17T01:48:42.935Z,3.22
2018-12-17T01:49:42.987Z,3.20
2018-12-17T01:50:43.049Z,3.17
2018-12-17T01:51:43.088Z,3.19
2018-12-17T01:52:43.138Z,3.19
2018-12-17T01:53:43.188Z,3.07
2018-12-17T01:54:43.246Z,3.19
2018-12-17T01:55:43.290Z,3.13
2018-12-17T01:56:43.343Z,3.02
2018-12-17T01:57:43.390Z,2.99
2018-12-17T01:58:43.443Z,3.02
2018-12-17T01:59:43.493Z,2.97
2018-12-17T02:00:43.544Z,2.98
2018-12-17T02:01:43.594Z,3.02
2018-12-17T02:02:43.645Z,3.02
2018-12-17T02:03:43.695Z,2.86
2018-12-17T02:04:43.746Z,3.01
2018-12-17T02:05:43.797Z,2.95
2018-12-17T02:06:43.861Z,3.04
2018-12-17T02:07:43.898Z,3.01
2018-12-17T02:08:43.948Z,3.04
2018-12-17T02:09:43.996Z,3.02
2018-12-17T02:10:44.048Z,2.98
2018-12-17T02:11:44.099Z,3.01
2018-12-17T02:12:44.148Z,3.17
2018-12-17T02:13:44.200Z,3.16
2018-12-17T02:14:44.249Z,3.15
2018-12-17T02:15:44.300Z,3.10
2018-12-17T02:16:44.349Z,3.05
2018-12-17T02:17:44.400Z,3.02
2018-12-17T02:18:44.450Z,3.05
2018-12-17T02:19:44.501Z,3.15
2018-12-17T02:20:44.551Z,3.07
2018-12-17T02:21:44.601Z,3.12
2018-12-17T02:22:44.653Z,3.04
2018-12-17T02:23:44.709Z,3.19
2018-12-17T02:24:44.753Z,3.22
2018-12-17T02:25:44.804Z,3.16
2018-12-17T02:26:44.854Z,3.08
2018-12-17T02:27:44.905Z,2.98
2018-12-17T02:28:44.955Z,3.05
2018-12-17T02:29:45.006Z,3.01
2018-12-17T02:30:45.055Z,2.99
2018-12-17T02:31:45.106Z,3.02
2018-12-17T02:32:45.157Z,2.98
2018-12-17T02:33:45.257Z,3.02
2018-12-17T02:34:45.260Z,3.04
2018-12-17T02:35:45.308Z,3.01
2018-12-17T02:36:45.358Z,3.02
2018-12-17T02:37:45.412Z,3.01
2018-12-17T02:38:45.459Z,3.04
2018-12-17T02:39:45.510Z,3.01
2018-12-17T02:40:45.559Z,3.01
2018-12-17T02:41:45.609Z,3.07
2018-12-17T02:42:45.659Z,2.99
2018-12-17T02:43:45.711Z,3.05
2018-12-17T02:44:45.761Z,3.05
2018-12-17T02:45:45.813Z,3.04
2018-12-17T02:46:45.868Z,3.10
2018-12-17T02:47:45.912Z,3.12
2018-12-17T02:48:45.974Z,3.17
2018-12-17T02:49:46.012Z,3.19
2018-12-17T02:50:46.063Z,3.25
2018-12-17T02:51:46.115Z,3.17
2018-12-17T02:52:46.162Z,3.20
2018-12-17T02:53:46.214Z,3.17
2018-12-17T02:54:46.265Z,3.08
2018-12-17T02:55:46.314Z,2.97
2018-12-17T02:56:46.376Z,3.07
2018-12-17T02:57:46.415Z,2.94
2018-12-17T02:58:46.466Z,2.98
2018-12-17T02:59:46.516Z,3.05
2018-12-17T03:00:46.566Z,3.16
2018-12-17T03:01:46.617Z,3.13
2018-12-17T03:02:46.668Z,3.15
2018-12-17T03:03:46.719Z,3.22
2018-12-17T03:04:46.769Z,3.08
2018-12-17T03:05:46.818Z,3.19
2018-12-17T03:06:46.870Z,3.22
2018-12-17T03:07:46.922Z,3.22
2018-12-17T03:08:46.969Z,3.19
2018-12-17T03:09:47.020Z,3.20
2018-12-17T03:10:47.071Z,3.19
2018-12-17T03:11:47.127Z,3.19
2018-12-17T03:12:47.172Z,3.19
2018-12-17T03:13:47.223Z,3.20
2018-12-17T03:14:47.273Z,3.17
2018-12-17T03:15:47.326Z,3.13
2018-12-17T03:16:47.373Z,3.16
2018-12-17T03:17:47.426Z,3.17
2018-12-17T03:18:47.474Z,3.17
2018-12-17T03:19:47.524Z,3.13
2018-12-17T03:20:47.577Z,3.30
2018-12-17T03:21:47.625Z,3.20
2018-12-17T03:22:47.676Z,3.26
2018-12-17T03:23:47.727Z,3.16
2018-12-17T03:24:47.778Z,3.19
2018-12-17T03:25:47.852Z,3.19
2018-12-17T03:26:47.879Z,3.33
2018-12-17T03:27:47.930Z,3.31
2018-12-17T03:28:51.625Z,3.30
2018-12-17T03:29:48.030Z,3.17
2018-12-17T03:30:48.082Z,3.26
2018-12-17T03:31:48.132Z,3.19
2018-12-17T03:32:48.182Z,3.19
2018-12-17T03:33:48.231Z,3.13
2018-12-17T03:34:48.283Z,3.20
2018-12-17T03:35:48.333Z,3.19
2018-12-17T03:36:48.383Z,3.19
2018-12-17T03:37:48.433Z,3.22
2018-12-17T03:38:48.485Z,3.17
2018-12-17T03:39:48.537Z,3.16
2018-12-17T03:40:48.608Z,3.12
2018-12-17T03:41:48.635Z,3.13
2018-12-17T03:42:48.688Z,3.12
2018-12-17T03:43:48.738Z,3.12
2018-12-17T03:44:48.797Z,3.12
2018-12-17T03:45:48.839Z,2.95
2018-12-17T03:46:48.888Z,2.99
2018-12-17T03:47:48.940Z,3.02
2018-12-17T03:48:48.989Z,2.89
2018-12-17T03:49:49.044Z,2.98
2018-12-17T03:50:49.092Z,3.05
2018-12-17T03:51:49.142Z,3.15
2018-12-17T03:52:49.192Z,3.16
2018-12-17T03:53:49.243Z,3.19
2018-12-17T03:54:49.294Z,3.19
2018-12-17T03:55:49.350Z,3.12
2018-12-17T03:56:49.395Z,3.13
2018-12-17T03:57:49.453Z,3.13
2018-12-17T03:58:49.494Z,3.10
2018-12-17T03:59:49.559Z,3.22
2018-12-17T04:00:49.596Z,3.20
2018-12-17T04:01:49.645Z,3.12
2018-12-17T04:02:49.698Z,2.90
2018-12-17T04:03:49.748Z,3.02
2018-12-17T04:04:49.797Z,3.01
2018-12-17T04:05:49.850Z,3.02
2018-12-17T04:06:49.903Z,3.15
2018-12-17T04:07:49.951Z,3.13
2018-12-17T04:08:49.998Z,3.12
2018-12-17T04:09:50.048Z,3.25
2018-12-17T04:10:50.101Z,3.16
2018-12-17T04:11:50.150Z,3.16
2018-12-17T04:12:50.199Z,3.12
2018-12-17T04:13:50.251Z,3.04
2018-12-17T04:14:50.300Z,3.05
2018-12-17T04:15:50.351Z,2.94
2018-12-17T04:16:50.401Z,2.97
2018-12-17T04:17:50.453Z,3.01
2018-12-17T04:18:50.506Z,3.13
2018-12-17T04:19:50.553Z,2.97
2018-12-17T04:20:50.603Z,2.99
2018-12-17T04:21:50.653Z,2.98
2018-12-17T04:22:50.709Z,2.97
2018-12-17T04:23:50.754Z,2.97
2018-12-17T04:24:50.803Z,3.04
2018-12-17T04:25:50.861Z,3.15
2018-12-17T04:26:50.905Z,3.10
2018-12-17T04:27:50.954Z,3.20
2018-12-17T04:28:51.004Z,3.10
2018-12-17T04:29:51.060Z,3.19
2018-12-17T04:30:51.105Z,3.23
2018-12-17T04:31:51.156Z,3.17
2018-12-17T04:32:51.205Z,3.08
2018-12-17T04:33:51.257Z,2.99
2018-12-17T04:34:51.307Z,3.10
2018-12-17T04:35:51.362Z,3.02
2018-12-17T04:36:51.407Z,3.01
2018-12-17T04:37:51.462Z,2.89
2018-12-17T04:38:51.509Z,2.92
2018-12-17T04:39:51.560Z,2.87
2018-12-17T04:40:51.608Z,2.97
2018-12-17T04:41:51.664Z,2.98
2018-12-17T04:42:51.710Z,3.01
2018-12-17T04:43:51.762Z,3.01
2018-12-17T04:44:51.819Z,3.01
2018-12-17T04:45:51.878Z,2.97
2018-12-17T04:46:51.912Z,2.95
2018-12-17T04:47:51.962Z,3.05
2018-12-17T04:48:52.014Z,2.97
2018-12-17T04:49:52.061Z,3.08
2018-12-17T04:50:52.112Z,3.02
2018-12-17T04:51:52.162Z,2.97
2018-12-17T04:52:52.212Z,2.97
2018-12-17T04:53:52.262Z,2.92
2018-12-17T04:54:52.312Z,2.89
2018-12-17T04:55:52.362Z,2.92
2018-12-17T04:56:52.415Z,2.92
2018-12-17T04:57:52.462Z,2.95
2018-12-17T04:58:52.529Z,2.92
2018-12-17T04:59:52.565Z,3.02
2018-12-17T05:00:52.635Z,3.04
2018-12-17T05:01:52.665Z,3.08
2018-12-17T05:02:52.722Z,3.01
2018-12-17T05:03:52.764Z,3.13
2018-12-17T05:04:52.814Z,2.99
2018-12-17T05:05:52.864Z,2.99
2018-12-17T05:06:52.914Z,3.07
2018-12-17T05:07:52.966Z,3.07
2018-12-17T05:08:53.016Z,3.01
2018-12-17T05:09:53.065Z,2.95
2018-12-17T05:10:53.155Z,2.86
2018-12-17T05:11:53.167Z,3.04
2018-12-17T05:12:53.215Z,2.98
2018-12-17T05:13:53.271Z,2.90
2018-12-17T05:14:53.318Z,2.99
2018-12-17T05:15:53.369Z,3.07
2018-12-17T05:16:53.416Z,3.02
2018-12-17T05:17:53.471Z,2.99
2018-12-17T05:18:53.518Z,2.94
2018-12-17T05:19:53.567Z,3.02
2018-12-17T05:20:53.616Z,2.98
2018-12-17T05:21:53.667Z,2.94
2018-12-17T05:22:53.719Z,2.87
2018-12-17T05:23:53.769Z,2.86
2018-12-17T05:24:53.818Z,2.84
2018-12-17T05:25:53.868Z,2.81
2018-12-17T05:26:53.919Z,2.76
2018-12-17T05:27:53.970Z,2.79
2018-12-17T05:28:54.018Z,2.83
2018-12-17T05:29:54.069Z,2.77
2018-12-17T05:30:54.119Z,2.77
2018-12-17T05:31:54.172Z,2.74
2018-12-17T05:32:54.221Z,2.73
2018-12-17T05:33:54.270Z,2.83
2018-12-17T05:34:54.319Z,2.86
2018-12-17T05:35:54.370Z,2.81
2018-12-17T05:36:54.421Z,2.86
2018-12-17T05:37:54.471Z,2.87
2018-12-17T05:38:54.520Z,3.01
2018-12-17T05:39:54.571Z,2.97
2018-12-17T05:40:54.621Z,2.97
2018-12-17T05:41:54.674Z,2.99
2018-12-17T05:42:54.722Z,3.05
2018-12-17T05:43:54.776Z,2.89
2018-12-17T05:44:55.181Z,2.89
2018-12-17T05:45:55.662Z,2.98
2018-12-17T05:46:55.519Z,2.99
2018-12-17T05:47:54.972Z,3.04
2018-12-17T05:48:55.024Z,3.01
2018-12-17T05:49:55.073Z,2.99
2018-12-17T05:50:55.124Z,2.86
2018-12-17T05:51:55.177Z,3.05
2018-12-17T05:52:55.222Z,2.98
2018-12-17T05:53:55.274Z,2.97
2018-12-17T05:54:55.323Z,2.83
2018-12-17T05:55:55.756Z,2.87
2018-12-17T05:56:55.490Z,2.87
2018-12-17T05:57:56.014Z,2.92
2018-12-17T05:58:55.647Z,3.01
2018-12-17T05:59:55.574Z,3.10
2018-12-17T06:00:55.625Z,2.99
2018-12-17T06:01:55.675Z,3.17
2018-12-17T06:02:55.731Z,3.05
2018-12-17T06:03:55.779Z,3.15
2018-12-17T06:04:55.826Z,3.17
2018-12-17T06:05:55.876Z,3.25
2018-12-17T06:06:55.927Z,3.23
2018-12-17T06:07:55.978Z,3.31
2018-12-17T06:08:56.045Z,3.30
2018-12-17T06:09:56.080Z,3.35
2018-12-17T06:10:56.131Z,3.31
2018-12-17T06:11:56.179Z,3.30
2018-12-17T06:12:56.229Z,3.31
2018-12-17T06:13:56.278Z,3.31
2018-12-17T06:14:56.329Z,3.23
2018-12-17T06:15:56.381Z,3.35
2018-12-17T06:16:56.430Z,3.33
2018-12-17T06:17:56.481Z,3.22
2018-12-17T06:18:56.532Z,3.25
2018-12-17T06:19:56.585Z,3.23
2018-12-17T06:20:56.632Z,3.22
2018-12-17T06:21:56.682Z,3.22
2018-12-17T06:22:56.734Z,3.17
2018-12-17T06:23:56.784Z,3.16
2018-12-17T06:24:56.834Z,3.20
2018-12-17T06:25:56.884Z,3.28
2018-12-17T06:26:56.940Z,3.31
2018-12-17T06:27:56.985Z,3.42
2018-12-17T06:28:57.037Z,3.42
2018-12-17T06:29:57.088Z,3.42
2018-12-17T06:30:57.138Z,3.37
2018-12-17T06:31:57.189Z,3.44
2018-12-17T06:32:57.255Z,3.44
2018-12-17T06:33:57.292Z,3.49
2018-12-17T06:34:57.341Z,3.49
2018-12-17T06:35:57.391Z,3.46
2018-12-17T06:36:57.442Z,3.45
2018-12-17T06:37:57.491Z,3.44
2018-12-17T06:38:57.579Z,3.54
2018-12-17T06:39:57.596Z,3.46
2018-12-17T06:40:58.439Z,3.56
2018-12-17T06:41:58.343Z,3.54
2018-12-17T06:42:57.747Z,3.57
2018-12-17T06:43:57.799Z,3.44
2018-12-17T06:44:57.847Z,3.59
2018-12-17T06:45:57.898Z,3.52
2018-12-17T06:46:57.949Z,3.52
2018-12-17T06:47:58.807Z,3.49
2018-12-17T06:48:58.050Z,3.45
2018-12-17T06:49:58.101Z,3.44
2018-12-17T06:50:58.153Z,3.53
2018-12-17T06:51:58.204Z,3.41
2018-12-17T06:52:58.252Z,3.49
2018-12-17T06:53:58.305Z,3.45
2018-12-17T06:54:58.356Z,3.41
2018-12-17T06:55:58.407Z,3.50
2018-12-17T06:56:58.457Z,3.45
2018-12-17T06:57:58.507Z,3.45
2018-12-17T06:58:58.562Z,3.50
2018-12-17T06:59:58.609Z,3.49
2018-12-17T07:00:58.660Z,3.45
2018-12-17T07:01:58.711Z,3.57
2018-12-17T07:02:58.763Z,3.56
2018-12-17T07:03:58.812Z,3.59
2018-12-17T07:04:58.864Z,3.59
2018-12-17T07:05:58.915Z,3.56
2018-12-17T07:06:58.965Z,3.54
2018-12-17T07:07:59.017Z,3.59
2018-12-17T07:08:59.067Z,3.45
2018-12-17T07:09:59.704Z,3.56
2018-12-17T07:10:59.171Z,3.35
2018-12-17T07:11:59.221Z,3.28
2018-12-17T07:12:59.274Z,3.25
2018-12-17T07:14:00.224Z,3.30
2018-12-17T07:14:59.371Z,3.33
2018-12-17T07:15:59.423Z,3.31
2018-12-17T07:16:59.473Z,3.23
2018-12-17T07:17:59.523Z,3.23
2018-12-17T07:18:59.576Z,3.19
2018-12-17T07:19:59.625Z,3.22
2018-12-17T07:20:59.676Z,3.17
2018-12-17T07:21:59.728Z,3.25
2018-12-17T07:22:59.780Z,3.20
2018-12-17T07:23:59.830Z,3.25
2018-12-17T07:24:59.879Z,3.19
2018-12-17T07:25:59.930Z,3.16
2018-12-17T07:26:59.982Z,3.23
2018-12-17T07:28:00.033Z,3.20
2018-12-17T07:29:00.081Z,3.22
2018-12-17T07:30:00.133Z,3.22
2018-12-17T07:31:00.183Z,3.20
2018-12-17T07:32:00.233Z,3.16
2018-12-17T07:33:00.284Z,3.15
2018-12-17T07:34:00.333Z,3.15
2018-12-17T07:35:00.384Z,3.17
2018-12-17T07:36:00.441Z,3.17
2018-12-17T07:37:00.486Z,3.16
2018-12-17T07:38:00.535Z,3.20
2018-12-17T07:39:00.587Z,3.23
2018-12-17T07:40:00.636Z,3.23
2018-12-17T07:41:00.689Z,3.28
2018-12-17T07:42:00.737Z,3.30
2018-12-17T07:43:00.788Z,3.41
2018-12-17T07:44:00.839Z,3.46
2018-12-17T07:45:00.888Z,3.46
2018-12-17T07:46:00.939Z,3.42
2018-12-17T07:47:00.990Z,3.41
2018-12-17T07:48:01.041Z,3.41
2018-12-17T07:49:01.091Z,3.46
2018-12-17T07:50:01.141Z,3.41
2018-12-17T07:51:01.192Z,3.45
2018-12-17T07:52:01.242Z,3.45
2018-12-17T07:53:01.297Z,3.44
2018-12-17T07:54:01.419Z,3.46
2018-12-17T07:55:01.396Z,3.42
2018-12-17T07:56:01.446Z,3.35
2018-12-17T07:57:01.495Z,3.35
2018-12-17T07:58:01.545Z,3.41
2018-12-17T07:59:01.596Z,3.42
2018-12-17T08:00:01.645Z,3.49
2018-12-17T08:01:01.697Z,3.46
2018-12-17T08:02:01.748Z,3.45
2018-12-17T08:03:01.797Z,3.46
2018-12-17T08:04:01.848Z,3.49
2018-12-17T08:05:01.900Z,3.53
2018-12-17T08:06:02.510Z,3.59
2018-12-17T08:07:02.001Z,3.52
2018-12-17T08:08:02.051Z,3.57
2018-12-17T08:09:02.104Z,3.57
2018-12-17T08:10:02.151Z,3.59
2018-12-17T08:11:02.203Z,3.62
2018-12-17T08:12:02.254Z,3.63
2018-12-17T08:13:02.305Z,3.71
2018-12-17T08:14:02.355Z,3.68
2018-12-17T08:15:02.405Z,3.71
2018-12-17T08:16:02.461Z,3.68
2018-12-17T08:17:02.934Z,3.72
2018-12-17T08:18:02.558Z,3.68
2018-12-17T08:19:02.609Z,3.70
2018-12-17T08:20:02.660Z,3.74
2018-12-17T08:21:02.710Z,3.74
2018-12-17T08:22:02.760Z,3.71
2018-12-17T08:23:02.811Z,3.75
2018-12-17T08:24:02.875Z,3.71
2018-12-17T08:25:02.911Z,3.56
2018-12-17T08:26:02.962Z,3.56
2018-12-17T08:27:03.014Z,3.74
2018-12-17T08:28:03.070Z,3.70
2018-12-17T08:29:03.116Z,3.72
2018-12-17T08:30:04.022Z,3.72
2018-12-17T08:31:03.216Z,3.71
2018-12-17T08:32:03.268Z,3.64
2018-12-17T08:33:03.319Z,3.77
2018-12-17T08:34:03.370Z,3.74
2018-12-17T08:35:03.420Z,3.62
2018-12-17T08:36:03.471Z,3.56
2018-12-17T08:37:03.522Z,3.59
2018-12-17T08:38:03.572Z,3.63
2018-12-17T08:39:03.623Z,3.62
2018-12-17T08:40:03.677Z,3.80
2018-12-17T08:41:03.725Z,3.67
2018-12-17T08:42:03.775Z,3.75
2018-12-17T08:43:03.828Z,3.75
2018-12-17T08:44:03.886Z,3.77
2018-12-17T08:45:03.928Z,3.71
2018-12-17T08:46:03.980Z,3.81
2018-12-17T08:47:04.030Z,3.74
2018-12-17T08:48:04.082Z,3.80
2018-12-17T08:49:04.131Z,3.81
2018-12-17T08:50:04.199Z,3.81
2018-12-17T08:51:04.234Z,3.78
2018-12-17T08:52:04.285Z,3.82
2018-12-17T08:53:04.339Z,3.82
2018-12-17T08:54:04.391Z,3.92
2018-12-17T08:55:04.440Z,3.81
2018-12-17T08:56:04.490Z,3.89
2018-12-17T08:57:04.543Z,3.89
2018-12-17T08:58:04.589Z,3.93
2018-12-17T08:59:04.979Z,3.89
2018-12-17T09:00:10.772Z,3.92
2018-12-17T09:01:04.743Z,3.81
2018-12-17T09:02:04.794Z,3.78
2018-12-17T09:03:05.301Z,3.80
2018-12-17T09:04:04.898Z,3.78
2018-12-17T09:05:04.950Z,3.78
2018-12-17T09:06:04.999Z,3.90
2018-12-17T09:07:05.050Z,3.93
2018-12-17T09:08:05.104Z,3.90
2018-12-17T09:09:05.169Z,3.89
2018-12-17T09:10:05.203Z,3.89
2018-12-17T09:11:05.254Z,3.78
2018-12-17T09:12:05.305Z,3.80
2018-12-17T09:13:05.355Z,3.75
2018-12-17T09:14:05.408Z,3.71
2018-12-17T09:15:05.460Z,3.71
2018-12-17T09:16:05.509Z,3.81
2018-12-17T09:17:05.559Z,3.82
2018-12-17T09:18:07.233Z,3.81
2018-12-17T09:19:05.662Z,3.80
2018-12-17T09:20:05.714Z,3.92
2018-12-17T09:21:05.764Z,3.95
2018-12-17T09:22:05.818Z,3.86
2018-12-17T09:23:05.866Z,3.93
2018-12-17T09:24:05.918Z,4.02
2018-12-17T09:25:05.969Z,4.13
2018-12-17T09:26:06.019Z,4.00
2018-12-17T09:27:06.070Z,4.04
2018-12-17T09:28:09.881Z,4.11
2018-12-17T09:29:06.172Z,4.08
2018-12-17T09:30:06.225Z,4.10
2018-12-17T09:31:06.276Z,3.99
2018-12-17T09:32:06.328Z,4.00
2018-12-17T09:33:06.379Z,4.11
2018-12-17T09:34:06.428Z,3.96
2018-12-17T09:35:06.480Z,3.98
2018-12-17T09:36:06.531Z,3.98
2018-12-17T09:37:06.581Z,4.07
2018-12-17T09:38:06.632Z,4.17
2018-12-17T09:39:06.685Z,3.99
2018-12-17T09:40:06.736Z,3.90
2018-12-17T09:41:06.787Z,3.89
2018-12-17T09:42:07.162Z,4.02
2018-12-17T09:43:07.541Z,4.13
2018-12-17T09:44:06.940Z,4.25
2018-12-17T09:45:06.992Z,4.28
2018-12-17T09:46:07.042Z,4.32
2018-12-17T09:47:07.095Z,4.29
2018-12-17T09:48:07.147Z,4.42
2018-12-17T09:49:07.195Z,4.61
2018-12-17T09:50:07.247Z,4.75
2018-12-17T09:51:07.299Z,4.90
2018-12-17T09:52:07.351Z,4.91
2018-12-17T09:53:07.405Z,4.91
2018-12-17T09:54:07.456Z,5.08
2018-12-17T09:55:07.504Z,4.96
2018-12-17T09:56:07.556Z,4.97
2018-12-17T09:57:07.606Z,5.01
2018-12-17T09:58:07.659Z,5.04
2018-12-17T09:59:07.710Z,5.02
2018-12-17T10:00:07.769Z,5.15
2018-12-17T10:01:07.816Z,5.19
2018-12-17T10:02:07.865Z,4.93
2018-12-17T10:03:07.916Z,4.86
2018-12-17T10:04:07.971Z,4.84
2018-12-17T10:05:08.021Z,4.87
2018-12-17T10:06:08.071Z,4.88
2018-12-17T10:07:08.123Z,4.84
2018-12-17T10:08:08.175Z,4.75
2018-12-17T10:09:08.225Z,4.84
2018-12-17T10:10:08.591Z,4.80
2018-12-17T10:11:08.332Z,4.91
2018-12-17T10:12:08.382Z,4.88
2018-12-17T10:13:08.434Z,5.01
2018-12-17T10:14:08.486Z,5.08
2018-12-17T10:15:08.538Z,5.19
2018-12-17T10:16:08.590Z,5.06
2018-12-17T10:17:08.642Z,4.90
2018-12-17T10:18:08.692Z,4.87
2018-12-17T10:19:08.744Z,4.97
2018-12-17T10:20:08.797Z,5.20
2018-12-17T10:21:08.848Z,5.33
2018-12-17T10:22:08.903Z,5.27
2018-12-17T10:23:08.952Z,5.42
2018-12-17T10:24:09.005Z,5.51
2018-12-17T10:25:09.077Z,5.56
2018-12-17T10:26:09.108Z,5.70
2018-12-17T10:27:09.161Z,5.52
2018-12-17T10:28:09.213Z,5.59
2018-12-17T10:29:09.268Z,5.65
2018-12-17T10:30:09.319Z,5.69
2018-12-17T10:31:09.370Z,5.73
2018-12-17T10:32:09.422Z,5.73
2018-12-17T10:33:09.473Z,5.80
2018-12-17T10:34:09.528Z,5.77
2018-12-17T10:35:09.578Z,5.90
2018-12-17T10:36:09.631Z,6.01
2018-12-17T10:37:09.685Z,5.98
2018-12-17T10:38:09.736Z,5.96
2018-12-17T10:39:09.791Z,5.99
2018-12-17T10:40:09.843Z,6.08
2018-12-17T10:41:09.893Z,6.06
2018-12-17T10:42:09.946Z,6.10
2018-12-17T10:43:10.001Z,6.16
2018-12-17T10:44:10.053Z,6.28
2018-12-17T10:45:10.107Z,6.19
2018-12-17T10:46:10.160Z,6.32
2018-12-17T10:47:10.239Z,6.17
2018-12-17T10:48:10.263Z,6.20
2018-12-17T10:49:10.314Z,6.21
2018-12-17T10:50:10.366Z,6.32
2018-12-17T10:51:10.420Z,6.17
2018-12-17T10:52:10.522Z,6.21
2018-12-17T10:53:10.524Z,6.33
2018-12-17T10:54:10.580Z,6.21
2018-12-17T10:55:10.630Z,6.32
2018-12-17T10:56:10.687Z,6.30
2018-12-17T10:57:10.752Z,6.24
2018-12-17T10:58:10.788Z,6.16
2018-12-17T10:59:10.842Z,6.03
2018-12-17T11:00:10.895Z,6.03
2018-12-17T11:01:10.946Z,6.17
2018-12-17T11:02:11.002Z,6.32
2018-12-17T11:03:11.068Z,6.05
2018-12-17T11:04:11.106Z,6.10
2018-12-17T11:05:11.159Z,6.16
2018-12-17T11:06:11.211Z,6.35
2018-12-17T11:07:11.266Z,6.38
2018-12-17T11:08:11.318Z,6.32
2018-12-17T11:09:11.372Z,6.42
2018-12-17T11:10:11.424Z,6.54
2018-12-17T11:11:11.481Z,6.69
2018-12-17T11:12:11.532Z,6.79
2018-12-17T11:13:11.582Z,6.69
2018-12-17T11:14:11.637Z,6.81
2018-12-17T11:15:11.690Z,6.82
2018-12-17T11:16:11.743Z,6.69
2018-12-17T11:17:11.810Z,6.57
2018-12-17T11:18:11.849Z,6.63
2018-12-17T11:19:11.903Z,6.54
2018-12-17T11:20:11.954Z,6.40
2018-12-17T11:21:12.006Z,6.43
2018-12-17T11:22:12.065Z,6.38
2018-12-17T11:23:12.117Z,6.43
2018-12-17T11:24:12.167Z,6.46
2018-12-17T11:25:12.228Z,6.60
2018-12-17T11:26:12.274Z,6.65
2018-12-17T11:27:12.336Z,6.71
2018-12-17T11:28:12.430Z,6.69
2018-12-17T11:29:12.435Z,6.71
2018-12-17T11:30:12.990Z,6.83
2018-12-17T11:31:12.854Z,6.87
2018-12-17T11:32:12.635Z,6.65
2018-12-17T11:33:12.646Z,6.54
2018-12-17T11:34:12.700Z,6.68
2018-12-17T11:35:13.082Z,6.69
2018-12-17T11:36:13.136Z,6.81
2018-12-17T11:37:12.858Z,6.75
2018-12-17T11:38:12.912Z,6.79
2018-12-17T11:39:12.966Z,6.73
2018-12-17T11:40:13.019Z,6.87
2018-12-17T11:41:13.072Z,6.87
2018-12-17T11:42:13.124Z,6.90
2018-12-17T11:43:13.178Z,7.01
2018-12-17T11:44:13.259Z,6.81
2018-12-17T11:45:13.285Z,6.81
2018-12-17T11:46:13.337Z,6.90
2018-12-17T11:47:13.394Z,6.83
2018-12-17T11:48:13.447Z,6.94
2018-12-17T11:49:13.497Z,6.94
2018-12-17T11:50:13.550Z,6.86
2018-12-17T11:51:13.606Z,6.65
2018-12-17T11:52:13.658Z,6.55
2018-12-17T11:53:13.711Z,6.65
2018-12-17T11:54:13.792Z,6.81
2018-12-17T11:55:13.818Z,6.96
2018-12-17T11:56:13.871Z,7.01
2018-12-17T11:57:13.923Z,7.08
2018-12-17T11:58:13.977Z,7.08
2018-12-17T11:59:14.031Z,7.09
2018-12-17T12:00:14.085Z,7.04
2018-12-17T12:01:14.450Z,6.73
2018-12-17T12:02:14.191Z,6.69
2018-12-17T12:03:14.243Z,6.81
2018-12-17T12:04:14.298Z,6.94
2018-12-17T12:05:14.351Z,7.07
2018-12-17T12:06:14.550Z,7.23
2018-12-17T12:07:14.457Z,7.24
2018-12-17T12:08:14.530Z,7.33
2018-12-17T12:09:15.233Z,7.19
2018-12-17T12:10:14.621Z,7.08
2018-12-17T12:11:14.673Z,7.14
2018-12-17T12:12:14.726Z,7.04
2018-12-17T12:13:14.776Z,7.14
2018-12-17T12:14:14.832Z,7.33
2018-12-17T12:15:14.886Z,7.36
2018-12-17T12:16:14.939Z,7.51
2018-12-17T12:17:14.992Z,7.45
2018-12-17T12:18:15.056Z,7.48
2018-12-17T12:19:15.100Z,7.55
2018-12-17T12:20:15.152Z,7.55
2018-12-17T12:21:15.206Z,7.62
2018-12-17T12:22:15.259Z,7.67
2018-12-17T12:23:15.313Z,7.70
2018-12-17T12:24:15.368Z,7.73
2018-12-17T12:25:15.421Z,7.57
2018-12-17T12:26:15.477Z,7.58
2018-12-17T12:27:15.544Z,7.73
2018-12-17T12:28:15.582Z,7.74
2018-12-17T12:29:15.635Z,7.71
2018-12-17T12:30:15.690Z,7.85
2018-12-17T12:31:15.743Z,7.99
2018-12-17T12:32:15.798Z,8.02
2018-12-17T12:33:15.852Z,7.96
2018-12-17T12:34:15.906Z,8.02
2018-12-17T12:35:15.960Z,8.03
2018-12-17T12:36:16.013Z,7.95
2018-12-17T12:37:16.842Z,8.00
2018-12-17T12:38:16.121Z,7.99
2018-12-17T12:39:16.180Z,8.06
2018-12-17T12:40:16.229Z,8.03
2018-12-17T12:41:16.286Z,7.88
2018-12-17T12:42:16.346Z,7.84
2018-12-17T12:43:16.392Z,7.84
2018-12-17T12:44:16.448Z,7.85
2018-12-17T12:45:16.501Z,7.76
2018-12-17T12:46:16.555Z,7.82
2018-12-17T12:47:16.610Z,7.95
2018-12-17T12:48:16.663Z,8.00
2018-12-17T12:49:16.716Z,8.02
2018-12-17T12:50:16.770Z,7.89
2018-12-17T12:51:16.824Z,7.99
2018-12-17T12:52:16.879Z,8.03
2018-12-17T12:53:16.934Z,8.04
2018-12-17T12:54:16.988Z,8.07
2018-12-17T12:55:17.041Z,8.07
2018-12-17T12:56:17.096Z,8.07
2018-12-17T12:57:17.202Z,8.07
2018-12-17T12:58:17.203Z,8.12
2018-12-17T12:59:17.257Z,8.09
2018-12-17T13:00:17.312Z,8.02
2018-12-17T13:01:17.366Z,8.03
2018-12-17T13:02:17.421Z,8.03
2018-12-17T13:03:17.474Z,8.06
2018-12-17T13:04:17.527Z,7.94
2018-12-17T13:05:17.581Z,7.81
2018-12-17T13:06:17.639Z,7.81
2018-12-17T13:07:17.690Z,7.70
2018-12-17T13:08:17.745Z,7.69
2018-12-17T13:09:17.798Z,7.66
2018-12-17T13:10:49.070Z,7.84
2018-12-17T13:11:49.777Z,7.91
2018-12-17T13:12:49.228Z,7.96
2018-12-17T13:13:49.613Z,8.04
2018-12-17T13:14:49.359Z,8.04
2018-12-17T13:15:49.341Z,7.91
2018-12-17T13:16:49.708Z,7.95
2018-12-17T13:17:49.483Z,7.94
2018-12-17T13:18:49.500Z,7.82
2018-12-17T13:19:49.551Z,7.84